Terminal Aerodrome Forecast
Issued by NWS New Orleans/Baton Rouge, LA

Home | Current Version | Previous Version | Text Only | Print | Product List | Glossary On
Versions: 1 2 3 4 5 6 7 8 9 10 11 12
519
FTUS44 KLIX 211123
TAFBTR
TAF
KBTR 211123Z 2112/2212 11005KT P6SM SCT030 BKN130
     FM211800 14008KT P6SM SCT030 OVC040
      TEMPO 2118/2121 4SM TSRA BKN025CB
     FM212100 14009KT 6SM SHRA VCTS SCT025CB BKN090
     FM220000 12008KT P6SM SCT025 BKN100
     FM220600 13008KT P6SM SCT020 BKN030
     FM221000 13006KT P6SM BKN008 BKN020=

USA.gov is the U.S. government's official web portal to all federal, state and local government web resources and services.